sensor_id;sensor_type;location;lat;lon;timestamp;P1;durP1;ratioP1;P2;durP2;ratioP2
10717;SDS011;13513;42.700;23.124;2022-07-06T00:01:23;8.55;;;7.62;;
10717;SDS011;13513;42.700;23.124;2022-07-06T00:03:55;8.23;;;7.42;;
10717;SDS011;13513;42.700;23.124;2022-07-06T00:06:26;8.90;;;7.78;;
10717;SDS011;13513;42.700;23.124;2022-07-06T00:08:57;9.15;;;8.15;;
10717;SDS011;13513;42.700;23.124;2022-07-06T00:11:28;9.03;;;7.78;;
10717;SDS011;13513;42.700;23.124;2022-07-06T00:13:59;10.10;;;8.55;;
10717;SDS011;13513;42.700;23.124;2022-07-06T00:16:30;9.65;;;7.75;;
10717;SDS011;13513;42.700;23.124;2022-07-06T00:19:01;8.68;;;7.62;;
10717;SDS011;13513;42.700;23.124;2022-07-06T00:21:33;7.85;;;7.15;;
10717;SDS011;13513;42.700;23.124;2022-07-06T00:24:04;8.28;;;7.47;;
10717;SDS011;13513;42.700;23.124;2022-07-06T00:26:35;7.65;;;6.80;;
10717;SDS011;13513;42.700;23.124;2022-07-06T00:29:06;7.90;;;7.10;;
10717;SDS011;13513;42.700;23.124;2022-07-06T00:31:37;9.60;;;6.92;;
10717;SDS011;13513;42.700;23.124;2022-07-06T00:34:08;8.30;;;6.80;;
10717;SDS011;13513;42.700;23.124;2022-07-06T00:36:39;7.47;;;6.78;;
10717;SDS011;13513;42.700;23.124;2022-07-06T00:39:10;8.08;;;6.80;;
10717;SDS011;13513;42.700;23.124;2022-07-06T00:41:41;7.83;;;7.05;;
10717;SDS011;13513;42.700;23.124;2022-07-06T00:44:12;7.90;;;7.17;;
10717;SDS011;13513;42.700;23.124;2022-07-06T00:46:43;8.40;;;6.90;;
10717;SDS011;13513;42.700;23.124;2022-07-06T00:49:14;10.95;;;7.67;;
10717;SDS011;13513;42.700;23.124;2022-07-06T00:52:01;9.23;;;7.60;;
10717;SDS011;13513;42.700;23.124;2022-07-06T00:54:32;8.83;;;7.33;;
10717;SDS011;13513;42.700;23.124;2022-07-06T00:57:04;7.83;;;7.15;;
10717;SDS011;13513;42.700;23.124;2022-07-06T00:59:35;8.88;;;7.85;;
10717;SDS011;13513;42.700;23.124;2022-07-06T01:02:06;8.88;;;8.00;;
10717;SDS011;13513;42.700;23.124;2022-07-06T01:04:37;12.00;;;8.13;;
10717;SDS011;13513;42.700;23.124;2022-07-06T01:07:08;7.83;;;7.12;;
10717;SDS011;13513;42.700;23.124;2022-07-06T01:09:42;8.13;;;7.00;;
10717;SDS011;13513;42.700;23.124;2022-07-06T01:12:12;8.13;;;7.30;;
10717;SDS011;13513;42.700;23.124;2022-07-06T01:14:43;7.53;;;6.83;;
10717;SDS011;13513;42.700;23.124;2022-07-06T01:17:16;9.35;;;7.03;;
10717;SDS011;13513;42.700;23.124;2022-07-06T01:19:47;8.40;;;7.60;;
10717;SDS011;13513;42.700;23.124;2022-07-06T01:22:19;9.28;;;7.25;;
10717;SDS011;13513;42.700;23.124;2022-07-06T01:24:50;9.63;;;7.80;;
10717;SDS011;13513;42.700;23.124;2022-07-06T01:27:20;10.43;;;7.95;;
10717;SDS011;13513;42.700;23.124;2022-07-06T01:29:51;8.88;;;7.97;;
10717;SDS011;13513;42.700;23.124;2022-07-06T01:32:22;9.90;;;8.93;;
10717;SDS011;13513;42.700;23.124;2022-07-06T01:34:53;10.58;;;9.35;;
10717;SDS011;13513;42.700;23.124;2022-07-06T01:37:24;9.05;;;8.15;;
10717;SDS011;13513;42.700;23.124;2022-07-06T01:39:57;9.25;;;7.90;;
10717;SDS011;13513;42.700;23.124;2022-07-06T01:42:28;11.15;;;8.75;;
10717;SDS011;13513;42.700;23.124;2022-07-06T01:44:59;20.72;;;9.10;;
10717;SDS011;13513;42.700;23.124;2022-07-06T01:47:28;10.60;;;9.50;;
10717;SDS011;13513;42.700;23.124;2022-07-06T01:50:00;9.93;;;9.00;;
10717;SDS011;13513;42.700;23.124;2022-07-06T01:52:32;10.38;;;9.03;;
10717;SDS011;13513;42.700;23.124;2022-07-06T01:55:02;11.28;;;8.98;;
10717;SDS011;13513;42.700;23.124;2022-07-06T01:57:33;11.73;;;9.60;;
10717;SDS011;13513;42.700;23.124;2022-07-06T02:00:05;9.98;;;8.98;;
10717;SDS011;13513;42.700;23.124;2022-07-06T02:02:36;11.38;;;8.43;;
10717;SDS011;13513;42.700;23.124;2022-07-06T02:05:07;11.75;;;9.10;;
10717;SDS011;13513;42.700;23.124;2022-07-06T02:07:38;10.55;;;9.45;;
10717;SDS011;13513;42.700;23.124;2022-07-06T02:10:10;11.18;;;9.38;;
10717;SDS011;13513;42.700;23.124;2022-07-06T02:12:41;10.35;;;9.28;;
10717;SDS011;13513;42.700;23.124;2022-07-06T02:15:12;9.63;;;8.58;;
10717;SDS011;13513;42.700;23.124;2022-07-06T02:17:44;10.10;;;9.10;;
10717;SDS011;13513;42.700;23.124;2022-07-06T02:20:14;9.63;;;8.35;;
10717;SDS011;13513;42.700;23.124;2022-07-06T02:22:44;9.80;;;8.80;;
10717;SDS011;13513;42.700;23.124;2022-07-06T02:25:14;9.50;;;7.85;;
10717;SDS011;13513;42.700;23.124;2022-07-06T02:27:45;8.08;;;7.33;;
10717;SDS011;13513;42.700;23.124;2022-07-06T02:30:15;9.93;;;7.90;;
10717;SDS011;13513;42.700;23.124;2022-07-06T02:32:45;9.73;;;7.53;;
10717;SDS011;13513;42.700;23.124;2022-07-06T02:35:18;9.78;;;7.80;;
10717;SDS011;13513;42.700;23.124;2022-07-06T02:37:49;8.33;;;7.40;;
10717;SDS011;13513;42.700;23.124;2022-07-06T02:40:22;9.55;;;7.78;;
10717;SDS011;13513;42.700;23.124;2022-07-06T02:42:53;8.33;;;7.40;;
10717;SDS011;13513;42.700;23.124;2022-07-06T02:45:24;7.70;;;6.87;;
10717;SDS011;13513;42.700;23.124;2022-07-06T02:47:54;7.83;;;6.78;;
10717;SDS011;13513;42.700;23.124;2022-07-06T02:50:25;7.80;;;7.08;;
10717;SDS011;13513;42.700;23.124;2022-07-06T02:52:56;7.35;;;6.62;;
10717;SDS011;13513;42.700;23.124;2022-07-06T02:55:26;7.08;;;6.22;;
10717;SDS011;13513;42.700;23.124;2022-07-06T02:57:56;7.72;;;6.03;;
10717;SDS011;13513;42.700;23.124;2022-07-06T03:00:25;8.23;;;7.15;;
10717;SDS011;13513;42.700;23.124;2022-07-06T03:02:56;6.80;;;6.20;;
10717;SDS011;13513;42.700;23.124;2022-07-06T03:05:27;7.22;;;6.33;;
10717;SDS011;13513;42.700;23.124;2022-07-06T03:07:59;24.82;;;17.92;;
10717;SDS011;13513;42.700;23.124;2022-07-06T03:10:29;11.95;;;10.70;;
10717;SDS011;13513;42.700;23.124;2022-07-06T03:12:59;9.88;;;6.17;;
10717;SDS011;13513;42.700;23.124;2022-07-06T03:15:30;7.72;;;6.45;;
10717;SDS011;13513;42.700;23.124;2022-07-06T03:18:01;6.80;;;6.05;;
10717;SDS011;13513;42.700;23.124;2022-07-06T03:20:31;8.58;;;6.22;;
10717;SDS011;13513;42.700;23.124;2022-07-06T03:23:03;6.60;;;5.70;;
10717;SDS011;13513;42.700;23.124;2022-07-06T03:25:33;6.92;;;5.83;;
10717;SDS011;13513;42.700;23.124;2022-07-06T03:28:05;6.42;;;5.58;;
10717;SDS011;13513;42.700;23.124;2022-07-06T03:30:35;8.15;;;6.00;;
10717;SDS011;13513;42.700;23.124;2022-07-06T03:33:07;6.50;;;5.83;;
10717;SDS011;13513;42.700;23.124;2022-07-06T03:35:38;8.83;;;6.12;;
10717;SDS011;13513;42.700;23.124;2022-07-06T03:38:09;6.47;;;5.40;;
10717;SDS011;13513;42.700;23.124;2022-07-06T03:40:39;10.10;;;5.70;;
10717;SDS011;13513;42.700;23.124;2022-07-06T03:43:09;6.85;;;5.40;;
10717;SDS011;13513;42.700;23.124;2022-07-06T03:45:40;8.45;;;5.90;;
10717;SDS011;13513;42.700;23.124;2022-07-06T03:48:10;8.50;;;6.08;;
10717;SDS011;13513;42.700;23.124;2022-07-06T03:50:41;6.97;;;5.67;;
10717;SDS011;13513;42.700;23.124;2022-07-06T03:53:12;6.65;;;5.40;;
10717;SDS011;13513;42.700;23.124;2022-07-06T03:55:43;6.75;;;5.65;;
10717;SDS011;13513;42.700;23.124;2022-07-06T03:58:13;7.83;;;5.42;;
10717;SDS011;13513;42.700;23.124;2022-07-06T04:00:45;8.18;;;5.15;;
10717;SDS011;13513;42.700;23.124;2022-07-06T04:03:15;10.98;;;5.25;;
10717;SDS011;13513;42.700;23.124;2022-07-06T04:05:45;5.67;;;5.05;;
10717;SDS011;13513;42.700;23.124;2022-07-06T04:08:16;6.60;;;5.20;;
10717;SDS011;13513;42.700;23.124;2022-07-06T04:10:46;5.78;;;4.97;;
10717;SDS011;13513;42.700;23.124;2022-07-06T04:13:17;6.12;;;4.50;;
10717;SDS011;13513;42.700;23.124;2022-07-06T04:15:48;7.12;;;4.58;;
10717;SDS011;13513;42.700;23.124;2022-07-06T04:18:19;9.98;;;5.17;;
10717;SDS011;13513;42.700;23.124;2022-07-06T04:20:48;5.37;;;4.80;;
10717;SDS011;13513;42.700;23.124;2022-07-06T04:23:19;6.03;;;5.05;;
10717;SDS011;13513;42.700;23.124;2022-07-06T04:25:51;6.90;;;4.72;;
10717;SDS011;13513;42.700;23.124;2022-07-06T04:28:21;7.55;;;4.80;;
10717;SDS011;13513;42.700;23.124;2022-07-06T04:30:51;7.70;;;5.17;;
10717;SDS011;13513;42.700;23.124;2022-07-06T04:33:21;9.10;;;5.30;;
10717;SDS011;13513;42.700;23.124;2022-07-06T04:35:52;11.30;;;5.75;;
10717;SDS011;13513;42.700;23.124;2022-07-06T04:38:23;8.73;;;5.70;;
10717;SDS011;13513;42.700;23.124;2022-07-06T04:40:54;10.05;;;5.95;;
10717;SDS011;13513;42.700;23.124;2022-07-06T04:43:24;10.75;;;6.62;;
10717;SDS011;13513;42.700;23.124;2022-07-06T04:45:55;12.25;;;6.62;;
10717;SDS011;13513;42.700;23.124;2022-07-06T04:48:26;8.70;;;6.80;;
10717;SDS011;13513;42.700;23.124;2022-07-06T04:50:57;9.60;;;7.55;;
10717;SDS011;13513;42.700;23.124;2022-07-06T04:53:28;8.95;;;7.62;;
10717;SDS011;13513;42.700;23.124;2022-07-06T04:55:59;9.00;;;8.08;;
10717;SDS011;13513;42.700;23.124;2022-07-06T04:58:30;12.60;;;8.20;;
10717;SDS011;13513;42.700;23.124;2022-07-06T05:01:01;11.08;;;8.23;;
10717;SDS011;13513;42.700;23.124;2022-07-06T05:03:32;12.88;;;8.98;;
10717;SDS011;13513;42.700;23.124;2022-07-06T05:06:04;9.50;;;8.50;;
10717;SDS011;13513;42.700;23.124;2022-07-06T05:08:36;11.00;;;9.75;;
10717;SDS011;13513;42.700;23.124;2022-07-06T05:11:07;10.13;;;8.60;;
10717;SDS011;13513;42.700;23.124;2022-07-06T05:13:38;10.85;;;8.58;;
10717;SDS011;13513;42.700;23.124;2022-07-06T05:16:08;10.78;;;8.30;;
10717;SDS011;13513;42.700;23.124;2022-07-06T05:18:40;11.68;;;8.53;;
10717;SDS011;13513;42.700;23.124;2022-07-06T05:21:10;11.22;;;7.83;;
10717;SDS011;13513;42.700;23.124;2022-07-06T05:23:41;10.20;;;7.75;;
10717;SDS011;13513;42.700;23.124;2022-07-06T05:26:12;9.38;;;7.70;;
10717;SDS011;13513;42.700;23.124;2022-07-06T05:28:43;9.23;;;7.20;;
10717;SDS011;13513;42.700;23.124;2022-07-06T05:31:14;8.15;;;6.25;;
10717;SDS011;13513;42.700;23.124;2022-07-06T05:33:45;8.00;;;6.15;;
10717;SDS011;13513;42.700;23.124;2022-07-06T05:36:15;6.60;;;5.92;;
10717;SDS011;13513;42.700;23.124;2022-07-06T05:38:45;8.13;;;6.10;;
10717;SDS011;13513;42.700;23.124;2022-07-06T05:41:16;6.45;;;5.83;;
10717;SDS011;13513;42.700;23.124;2022-07-06T05:43:50;7.58;;;5.87;;
10717;SDS011;13513;42.700;23.124;2022-07-06T05:46:21;7.33;;;5.95;;
10717;SDS011;13513;42.700;23.124;2022-07-06T05:48:52;8.23;;;6.33;;
10717;SDS011;13513;42.700;23.124;2022-07-06T05:51:39;10.00;;;5.83;;
10717;SDS011;13513;42.700;23.124;2022-07-06T05:54:10;6.90;;;5.60;;
10717;SDS011;13513;42.700;23.124;2022-07-06T05:56:41;9.53;;;6.12;;
10717;SDS011;13513;42.700;23.124;2022-07-06T05:59:13;6.75;;;5.90;;
10717;SDS011;13513;42.700;23.124;2022-07-06T06:01:44;10.05;;;5.58;;
10717;SDS011;13513;42.700;23.124;2022-07-06T06:04:15;6.47;;;5.92;;
10717;SDS011;13513;42.700;23.124;2022-07-06T06:06:46;8.68;;;7.33;;
10717;SDS011;13513;42.700;23.124;2022-07-06T06:09:17;7.58;;;6.72;;
10717;SDS011;13513;42.700;23.124;2022-07-06T06:11:48;8.30;;;7.50;;
10717;SDS011;13513;42.700;23.124;2022-07-06T06:14:19;9.70;;;7.85;;
10717;SDS011;13513;42.700;23.124;2022-07-06T06:16:49;9.65;;;7.37;;
10717;SDS011;13513;42.700;23.124;2022-07-06T06:19:19;8.83;;;7.83;;
10717;SDS011;13513;42.700;23.124;2022-07-06T06:21:50;11.22;;;8.73;;
10717;SDS011;13513;42.700;23.124;2022-07-06T06:24:20;11.40;;;8.03;;
10717;SDS011;13513;42.700;23.124;2022-07-06T06:26:51;10.95;;;8.40;;
10717;SDS011;13513;42.700;23.124;2022-07-06T06:29:22;14.40;;;11.03;;
10717;SDS011;13513;42.700;23.124;2022-07-06T06:31:53;11.20;;;8.15;;
10717;SDS011;13513;42.700;23.124;2022-07-06T06:34:24;9.13;;;7.65;;
10717;SDS011;13513;42.700;23.124;2022-07-06T06:36:54;10.35;;;7.22;;
10717;SDS011;13513;42.700;23.124;2022-07-06T06:39:25;8.83;;;7.65;;
10717;SDS011;13513;42.700;23.124;2022-07-06T06:41:56;10.63;;;8.30;;
10717;SDS011;13513;42.700;23.124;2022-07-06T06:44:26;9.65;;;8.35;;
10717;SDS011;13513;42.700;23.124;2022-07-06T06:46:59;9.00;;;8.08;;
10717;SDS011;13513;42.700;23.124;2022-07-06T06:49:30;8.53;;;7.72;;
10717;SDS011;13513;42.700;23.124;2022-07-06T06:52:01;10.03;;;8.23;;
10717;SDS011;13513;42.700;23.124;2022-07-06T06:54:31;19.95;;;17.77;;
10717;SDS011;13513;42.700;23.124;2022-07-06T06:57:03;10.20;;;9.20;;
10717;SDS011;13513;42.700;23.124;2022-07-06T06:59:33;17.90;;;15.98;;
10717;SDS011;13513;42.700;23.124;2022-07-06T07:02:03;11.57;;;10.38;;
10717;SDS011;13513;42.700;23.124;2022-07-06T07:04:34;9.20;;;8.28;;
10717;SDS011;13513;42.700;23.124;2022-07-06T07:07:05;9.68;;;8.18;;
10717;SDS011;13513;42.700;23.124;2022-07-06T07:09:36;9.50;;;8.60;;
10717;SDS011;13513;42.700;23.124;2022-07-06T07:12:07;10.35;;;8.88;;
10717;SDS011;13513;42.700;23.124;2022-07-06T07:14:39;9.33;;;8.28;;
10717;SDS011;13513;42.700;23.124;2022-07-06T07:17:10;9.68;;;8.65;;
10717;SDS011;13513;42.700;23.124;2022-07-06T07:19:42;11.15;;;9.18;;
10717;SDS011;13513;42.700;23.124;2022-07-06T07:22:13;14.25;;;9.88;;
10717;SDS011;13513;42.700;23.124;2022-07-06T07:24:44;12.00;;;10.53;;
10717;SDS011;13513;42.700;23.124;2022-07-06T07:27:15;11.80;;;9.95;;
10717;SDS011;13513;42.700;23.124;2022-07-06T07:29:46;11.83;;;10.25;;
10717;SDS011;13513;42.700;23.124;2022-07-06T07:32:17;10.72;;;9.70;;
10717;SDS011;13513;42.700;23.124;2022-07-06T07:34:48;10.08;;;9.18;;
10717;SDS011;13513;42.700;23.124;2022-07-06T07:37:18;11.55;;;10.40;;
10717;SDS011;13513;42.700;23.124;2022-07-06T07:39:48;48.45;;;16.25;;
10717;SDS011;13513;42.700;23.124;2022-07-06T07:42:18;11.83;;;10.63;;
10717;SDS011;13513;42.700;23.124;2022-07-06T07:44:49;13.98;;;10.25;;
10717;SDS011;13513;42.700;23.124;2022-07-06T07:47:20;10.82;;;9.73;;
10717;SDS011;13513;42.700;23.124;2022-07-06T07:49:51;13.85;;;9.80;;
10717;SDS011;13513;42.700;23.124;2022-07-06T07:52:22;11.28;;;10.13;;
10717;SDS011;13513;42.700;23.124;2022-07-06T07:54:53;9.68;;;8.70;;
10717;SDS011;13513;42.700;23.124;2022-07-06T07:57:24;10.88;;;9.78;;
10717;SDS011;13513;42.700;23.124;2022-07-06T07:59:54;14.28;;;10.40;;
10717;SDS011;13513;42.700;23.124;2022-07-06T08:02:25;11.80;;;10.60;;
10717;SDS011;13513;42.700;23.124;2022-07-06T08:04:55;12.03;;;10.78;;
10717;SDS011;13513;42.700;23.124;2022-07-06T08:07:26;10.72;;;9.73;;
10717;SDS011;13513;42.700;23.124;2022-07-06T08:09:57;11.45;;;10.30;;
10717;SDS011;13513;42.700;23.124;2022-07-06T08:12:26;13.20;;;10.82;;
10717;SDS011;13513;42.700;23.124;2022-07-06T08:14:57;12.03;;;9.80;;
10717;SDS011;13513;42.700;23.124;2022-07-06T08:17:27;10.63;;;9.55;;
10717;SDS011;13513;42.700;23.124;2022-07-06T08:19:58;10.58;;;9.38;;
10717;SDS011;13513;42.700;23.124;2022-07-06T08:22:29;9.95;;;8.93;;
10717;SDS011;13513;42.700;23.124;2022-07-06T08:25:00;11.15;;;9.35;;
10717;SDS011;13513;42.700;23.124;2022-07-06T08:27:32;10.20;;;9.20;;
10717;SDS011;13513;42.700;23.124;2022-07-06T08:30:03;10.98;;;9.88;;
10717;SDS011;13513;42.700;23.124;2022-07-06T08:32:32;10.28;;;9.28;;
10717;SDS011;13513;42.700;23.124;2022-07-06T08:35:07;11.40;;;9.05;;
10717;SDS011;13513;42.700;23.124;2022-07-06T08:37:39;10.90;;;9.83;;
10717;SDS011;13513;42.700;23.124;2022-07-06T08:40:09;14.58;;;9.85;;
10717;SDS011;13513;42.700;23.124;2022-07-06T08:42:38;10.58;;;9.58;;
10717;SDS011;13513;42.700;23.124;2022-07-06T08:45:09;10.65;;;9.55;;
10717;SDS011;13513;42.700;23.124;2022-07-06T08:47:44;10.23;;;9.13;;
10717;SDS011;13513;42.700;23.124;2022-07-06T08:50:15;10.25;;;9.33;;
10717;SDS011;13513;42.700;23.124;2022-07-06T08:52:47;10.88;;;9.18;;
10717;SDS011;13513;42.700;23.124;2022-07-06T08:55:17;10.75;;;9.65;;
10717;SDS011;13513;42.700;23.124;2022-07-06T08:57:48;12.50;;;10.58;;
10717;SDS011;13513;42.700;23.124;2022-07-06T09:00:20;11.65;;;10.55;;
10717;SDS011;13513;42.700;23.124;2022-07-06T09:02:54;12.35;;;11.15;;
10717;SDS011;13513;42.700;23.124;2022-07-06T09:05:25;11.60;;;10.50;;
10717;SDS011;13513;42.700;23.124;2022-07-06T09:07:56;11.20;;;10.13;;
10717;SDS011;13513;42.700;23.124;2022-07-06T09:10:28;10.50;;;9.20;;
10717;SDS011;13513;42.700;23.124;2022-07-06T09:13:01;12.63;;;10.53;;
10717;SDS011;13513;42.700;23.124;2022-07-06T09:15:32;13.03;;;11.78;;
10717;SDS011;13513;42.700;23.124;2022-07-06T09:18:04;11.55;;;10.13;;
10717;SDS011;13513;42.700;23.124;2022-07-06T09:20:34;13.10;;;11.80;;
10717;SDS011;13513;42.700;23.124;2022-07-06T09:23:05;12.07;;;10.98;;
10717;SDS011;13513;42.700;23.124;2022-07-06T09:25:37;13.88;;;12.47;;
10717;SDS011;13513;42.700;23.124;2022-07-06T09:28:08;13.15;;;11.85;;
10717;SDS011;13513;42.700;23.124;2022-07-06T09:30:39;16.20;;;11.88;;
10717;SDS011;13513;42.700;23.124;2022-07-06T09:33:12;13.98;;;12.78;;
10717;SDS011;13513;42.700;23.124;2022-07-06T09:35:43;13.05;;;11.75;;
10717;SDS011;13513;42.700;23.124;2022-07-06T09:38:14;13.75;;;12.20;;
10717;SDS011;13513;42.700;23.124;2022-07-06T09:40:45;15.43;;;12.20;;
10717;SDS011;13513;42.700;23.124;2022-07-06T09:43:17;13.60;;;12.28;;
10717;SDS011;13513;42.700;23.124;2022-07-06T09:45:52;12.90;;;11.60;;
10717;SDS011;13513;42.700;23.124;2022-07-06T09:48:25;12.98;;;11.65;;
10717;SDS011;13513;42.700;23.124;2022-07-06T09:51:00;13.08;;;11.33;;
10717;SDS011;13513;42.700;23.124;2022-07-06T09:53:31;12.23;;;11.00;;
10717;SDS011;13513;42.700;23.124;2022-07-06T09:56:02;12.30;;;11.20;;
10717;SDS011;13513;42.700;23.124;2022-07-06T09:58:34;12.35;;;10.98;;
10717;SDS011;13513;42.700;23.124;2022-07-06T10:01:05;11.18;;;10.13;;
10717;SDS011;13513;42.700;23.124;2022-07-06T10:03:37;12.78;;;10.20;;
10717;SDS011;13513;42.700;23.124;2022-07-06T10:06:09;11.55;;;10.30;;
10717;SDS011;13513;42.700;23.124;2022-07-06T10:08:40;12.43;;;11.05;;
10717;SDS011;13513;42.700;23.124;2022-07-06T10:11:12;11.85;;;10.75;;
10717;SDS011;13513;42.700;23.124;2022-07-06T10:13:43;12.60;;;10.75;;
10717;SDS011;13513;42.700;23.124;2022-07-06T10:16:15;12.58;;;11.38;;
10717;SDS011;13513;42.700;23.124;2022-07-06T10:18:48;12.07;;;10.90;;
10717;SDS011;13513;42.700;23.124;2022-07-06T10:21:23;11.45;;;10.08;;
10717;SDS011;13513;42.700;23.124;2022-07-06T10:23:54;11.57;;;10.58;;
10717;SDS011;13513;42.700;23.124;2022-07-06T10:26:25;10.10;;;9.15;;
10717;SDS011;13513;42.700;23.124;2022-07-06T10:28:57;10.93;;;9.90;;
10717;SDS011;13513;42.700;23.124;2022-07-06T10:31:27;12.30;;;10.93;;
10717;SDS011;13513;42.700;23.124;2022-07-06T10:34:04;12.30;;;11.20;;
10717;SDS011;13513;42.700;23.124;2022-07-06T10:36:30;12.43;;;11.33;;
10717;SDS011;13513;42.700;23.124;2022-07-06T10:39:02;11.85;;;10.43;;
10717;SDS011;13513;42.700;23.124;2022-07-06T10:41:34;11.63;;;10.63;;
10717;SDS011;13513;42.700;23.124;2022-07-06T10:44:17;12.07;;;10.72;;
10717;SDS011;13513;42.700;23.124;2022-07-06T10:46:58;13.32;;;12.10;;
10717;SDS011;13513;42.700;23.124;2022-07-06T10:49:30;13.18;;;11.88;;
10717;SDS011;13513;42.700;23.124;2022-07-06T10:52:02;12.05;;;10.85;;
10717;SDS011;13513;42.700;23.124;2022-07-06T10:54:38;12.20;;;11.20;;
10717;SDS011;13513;42.700;23.124;2022-07-06T10:57:09;14.03;;;12.73;;
10717;SDS011;13513;42.700;23.124;2022-07-06T10:59:41;13.03;;;11.73;;
10717;SDS011;13513;42.700;23.124;2022-07-06T11:02:37;12.43;;;11.33;;
10717;SDS011;13513;42.700;23.124;2022-07-06T11:05:10;12.98;;;11.83;;
10717;SDS011;13513;42.700;23.124;2022-07-06T11:07:48;12.55;;;11.30;;
10717;SDS011;13513;42.700;23.124;2022-07-06T11:10:20;12.82;;;11.60;;
10717;SDS011;13513;42.700;23.124;2022-07-06T11:13:00;12.82;;;11.53;;
10717;SDS011;13513;42.700;23.124;2022-07-06T11:15:46;12.78;;;11.50;;
10717;SDS011;13513;42.700;23.124;2022-07-06T11:18:20;14.05;;;12.75;;
10717;SDS011;13513;42.700;23.124;2022-07-06T11:23:50;13.88;;;12.60;;
10717;SDS011;13513;42.700;23.124;2022-07-06T11:26:21;12.88;;;11.78;;
10717;SDS011;13513;42.700;23.124;2022-07-06T11:28:53;12.07;;;11.08;;
10717;SDS011;13513;42.700;23.124;2022-07-06T11:31:24;13.10;;;11.75;;
10717;SDS011;13513;42.700;23.124;2022-07-06T11:33:54;13.25;;;11.95;;
10717;SDS011;13513;42.700;23.124;2022-07-06T11:36:23;12.60;;;11.50;;
10717;SDS011;13513;42.700;23.124;2022-07-06T11:38:54;12.98;;;11.80;;
10717;SDS011;13513;42.700;23.124;2022-07-06T11:41:26;13.55;;;12.20;;
10717;SDS011;13513;42.700;23.124;2022-07-06T11:43:57;13.93;;;12.53;;
10717;SDS011;13513;42.700;23.124;2022-07-06T11:46:30;12.90;;;11.68;;
10717;SDS011;13513;42.700;23.124;2022-07-06T11:49:04;13.32;;;11.68;;
10717;SDS011;13513;42.700;23.124;2022-07-06T11:51:38;64.50;;;13.60;;
10717;SDS011;13513;42.700;23.124;2022-07-06T11:54:10;13.25;;;11.57;;
10717;SDS011;13513;42.700;23.124;2022-07-06T11:56:49;12.20;;;10.75;;
10717;SDS011;13513;42.700;23.124;2022-07-06T11:59:24;9.28;;;8.33;;
10717;SDS011;13513;42.700;23.124;2022-07-06T12:02:04;9.70;;;8.08;;
10717;SDS011;13513;42.700;23.124;2022-07-06T12:04:42;8.70;;;7.90;;
10717;SDS011;13513;42.700;23.124;2022-07-06T12:07:15;8.50;;;7.70;;
10717;SDS011;13513;42.700;23.124;2022-07-06T12:09:47;10.93;;;7.75;;
10717;SDS011;13513;42.700;23.124;2022-07-06T12:12:18;8.50;;;7.80;;
10717;SDS011;13513;42.700;23.124;2022-07-06T12:14:49;8.15;;;7.10;;
10717;SDS011;13513;42.700;23.124;2022-07-06T12:17:21;9.35;;;8.45;;
10717;SDS011;13513;42.700;23.124;2022-07-06T12:19:53;8.20;;;7.40;;
10717;SDS011;13513;42.700;23.124;2022-07-06T12:22:25;7.20;;;6.60;;
10717;SDS011;13513;42.700;23.124;2022-07-06T12:24:56;7.28;;;6.58;;
10717;SDS011;13513;42.700;23.124;2022-07-06T12:27:27;7.83;;;7.12;;
10717;SDS011;13513;42.700;23.124;2022-07-06T12:30:07;8.10;;;7.40;;
10717;SDS011;13513;42.700;23.124;2022-07-06T12:32:40;83.17;;;11.33;;
10717;SDS011;13513;42.700;23.124;2022-07-06T12:35:11;38.55;;;8.00;;
10717;SDS011;13513;42.700;23.124;2022-07-06T12:37:54;16.02;;;6.47;;
10717;SDS011;13513;42.700;23.124;2022-07-06T12:40:12;6.60;;;5.50;;
10717;SDS011;13513;42.700;23.124;2022-07-06T12:42:47;5.58;;;5.08;;
10717;SDS011;13513;42.700;23.124;2022-07-06T12:45:18;6.45;;;4.80;;
10717;SDS011;13513;42.700;23.124;2022-07-06T12:48:00;5.33;;;4.92;;
10717;SDS011;13513;42.700;23.124;2022-07-06T12:50:35;4.97;;;4.58;;
10717;SDS011;13513;42.700;23.124;2022-07-06T12:55:40;5.20;;;4.70;;
10717;SDS011;13513;42.700;23.124;2022-07-06T12:58:17;7.35;;;4.65;;
10717;SDS011;13513;42.700;23.124;2022-07-06T13:00:46;5.42;;;4.95;;
10717;SDS011;13513;42.700;23.124;2022-07-06T13:03:16;4.80;;;4.40;;
10717;SDS011;13513;42.700;23.124;2022-07-06T13:05:50;4.75;;;4.35;;
10717;SDS011;13513;42.700;23.124;2022-07-06T13:08:21;4.12;;;3.83;;
10717;SDS011;13513;42.700;23.124;2022-07-06T13:10:52;5.37;;;3.70;;
10717;SDS011;13513;42.700;23.124;2022-07-06T13:13:23;3.17;;;2.98;;
10717;SDS011;13513;42.700;23.124;2022-07-06T13:15:53;5.05;;;2.95;;
10717;SDS011;13513;42.700;23.124;2022-07-06T13:18:24;34.05;;;30.70;;
10717;SDS011;13513;42.700;23.124;2022-07-06T13:20:55;38.20;;;34.30;;
10717;SDS011;13513;42.700;23.124;2022-07-06T13:23:26;2.67;;;2.30;;
10717;SDS011;13513;42.700;23.124;2022-07-06T13:25:57;2.70;;;2.15;;
10717;SDS011;13513;42.700;23.124;2022-07-06T13:28:27;3.58;;;2.90;;
10717;SDS011;13513;42.700;23.124;2022-07-06T13:30:58;3.12;;;2.10;;
10717;SDS011;13513;42.700;23.124;2022-07-06T13:33:29;4.12;;;2.17;;
10717;SDS011;13513;42.700;23.124;2022-07-06T13:36:00;2.27;;;2.08;;
10717;SDS011;13513;42.700;23.124;2022-07-06T13:38:30;3.55;;;2.10;;
10717;SDS011;13513;42.700;23.124;2022-07-06T13:41:01;4.42;;;2.08;;
10717;SDS011;13513;42.700;23.124;2022-07-06T13:43:32;3.40;;;2.00;;
10717;SDS011;13513;42.700;23.124;2022-07-06T13:46:06;5.33;;;2.20;;
10717;SDS011;13513;42.700;23.124;2022-07-06T13:48:38;2.87;;;1.90;;
10717;SDS011;13513;42.700;23.124;2022-07-06T13:51:09;3.00;;;1.92;;
10717;SDS011;13513;42.700;23.124;2022-07-06T13:53:40;2.05;;;1.90;;
10717;SDS011;13513;42.700;23.124;2022-07-06T13:56:13;2.30;;;2.10;;
10717;SDS011;13513;42.700;23.124;2022-07-06T13:58:42;2.00;;;1.90;;
10717;SDS011;13513;42.700;23.124;2022-07-06T14:01:14;2.42;;;1.95;;
10717;SDS011;13513;42.700;23.124;2022-07-06T14:03:48;2.27;;;2.08;;
10717;SDS011;13513;42.700;23.124;2022-07-06T14:06:19;2.10;;;1.90;;
10717;SDS011;13513;42.700;23.124;2022-07-06T14:08:49;2.12;;;1.98;;
10717;SDS011;13513;42.700;23.124;2022-07-06T14:11:21;2.47;;;2.15;;
10717;SDS011;13513;42.700;23.124;2022-07-06T14:13:51;2.05;;;1.90;;
10717;SDS011;13513;42.700;23.124;2022-07-06T14:16:22;7.70;;;1.98;;
10717;SDS011;13513;42.700;23.124;2022-07-06T14:18:52;2.95;;;2.08;;
10717;SDS011;13513;42.700;23.124;2022-07-06T14:21:23;2.10;;;1.90;;
10717;SDS011;13513;42.700;23.124;2022-07-06T14:23:54;6.17;;;1.90;;
10717;SDS011;13513;42.700;23.124;2022-07-06T14:26:27;2.15;;;1.95;;
10717;SDS011;13513;42.700;23.124;2022-07-06T14:28:58;6.20;;;2.00;;
10717;SDS011;13513;42.700;23.124;2022-07-06T14:31:30;2.37;;;2.00;;
10717;SDS011;13513;42.700;23.124;2022-07-06T14:34:01;2.30;;;2.10;;
10717;SDS011;13513;42.700;23.124;2022-07-06T14:36:35;8.23;;;2.10;;
10717;SDS011;13513;42.700;23.124;2022-07-06T14:39:05;2.08;;;1.98;;
10717;SDS011;13513;42.700;23.124;2022-07-06T14:41:37;4.55;;;2.10;;
10717;SDS011;13513;42.700;23.124;2022-07-06T14:44:08;2.17;;;1.98;;
10717;SDS011;13513;42.700;23.124;2022-07-06T14:46:39;2.50;;;1.98;;
10717;SDS011;13513;42.700;23.124;2022-07-06T14:49:10;6.45;;;2.27;;
10717;SDS011;13513;42.700;23.124;2022-07-06T14:51:40;3.40;;;2.00;;
10717;SDS011;13513;42.700;23.124;2022-07-06T14:54:10;4.20;;;2.02;;
10717;SDS011;13513;42.700;23.124;2022-07-06T14:56:41;3.17;;;1.77;;